Vitoria de Santo Antao, Brazil
Current Conditions -  °F | °C
As of 9:00 AM on Sunday 21 Dec 2014 (Local Time) from SBRF Reporting Station
Scattered Clouds Scattered Clouds  
Wind Chill: 82°   Ceiling: Unl
Heat Index: 88°   Visibility: 6mi
Dew Point: 73°   Wind: 12mph
Humidity: 74%   Direction: 100°E
Pressure: 29.97"   Gusts: NA
Location:  8.12°S, 35.29°W
Report Text: SBRF 211200Z 10010KT 9999 SCT023 28/23 Q1015
Loading
Personal Weather Stations






























Interactive Weather Map New forecast layout! Learn more

10-Day Weather Forecast

Advertisements
Track Severe Weather on mobile